Terminal Aerodrome Forecast
Issued by NWS

Home | Current Version | Previous Version | Text Only | Print | Product List | Glossary On
Versions: 1 2 3 4 5 6 7 8 9 10 11 12 13 14 15 16 17 18 19 20 21 22
000
FTUS44 KOUN 031139
TAFLAW
TAF
KLAW 031139Z 0312/0412 VRB03KT P6SM VCSH SCT008 BKN100
     FM031600 08006KT P6SM SCT040 SCT250
     FM040000 11006KT P6SM BKN250 PROB30 0401/0407 TSRA BKN030CB=

USA.gov is the U.S. government's official web portal to all federal, state and local government web resources and services.